Time;durP1;ratioP1;P1;durP2;ratioP2;P2;SDS_P1;SDS_P2;PMS_P1;PMS_P2;Temp;Humidity;BMP_temperature;BMP_pressure;BME280_temperature;BME280_humidity;BME280_pressure;Samples;Min_cycle;Max_cycle;Signal;HPM_P1;HPM_P2
2022/08/14 00:01:50;;;;;;;10.40;7.60;;;20.90;99.90;;;;;;4938190;29;20648;-75
2022/08/14 00:04:22;;;;;;;10.00;7.30;;;20.90;99.90;;;;;;4936737;29;20198;-76
2022/08/14 00:07:09;;;;;;;11.63;7.43;;;20.90;99.90;;;;;;4938038;29;20205;-78
2022/08/14 00:09:37;;;;;;;11.77;7.60;;;20.90;99.90;;;;;;4937931;29;20199;-75
2022/08/14 00:12:06;;;;;;;11.33;7.77;;;20.90;99.90;;;;;;4955254;29;20198;-75
2022/08/14 00:14:51;;;;;;;9.20;7.50;;;20.90;99.90;;;;;;4938074;29;20213;-78
2022/08/14 00:17:21;;;;;;;9.67;7.90;;;20.90;99.90;;;;;;4955298;29;20198;-76
2022/08/14 00:19:51;;;;;;;11.23;7.47;;;21.00;99.90;;;;;;4938046;29;20614;-75
2022/08/14 00:22:19;;;;;;;10.73;7.50;;;21.00;99.90;;;;;;4937610;29;20202;-75
2022/08/14 00:25:07;;;;;;;10.63;7.90;;;20.90;99.90;;;;;;4955302;29;20204;-77
2022/08/14 00:27:35;;;;;;;10.80;7.73;;;20.90;99.90;;;;;;4937944;29;20237;-77
2022/08/14 00:30:10;;;;;;;12.43;8.13;;;20.90;99.90;;;;;;4938768;29;20219;-76
2022/08/14 00:32:43;;;;;;;11.40;8.17;;;20.90;99.90;;;;;;4939195;29;20205;-78
2022/08/14 00:35:27;;;;;;;10.97;7.50;;;21.00;99.90;;;;;;4940250;29;20265;-78
2022/08/14 00:38:15;;;;;;;9.93;7.40;;;21.00;99.90;;;;;;4920474;29;20225;-77
2022/08/14 00:40:42;;;;;;;11.73;8.37;;;21.00;99.90;;;;;;4918417;29;20235;-75
2022/08/14 00:43:12;;;;;;;14.00;8.10;;;21.00;99.90;;;;;;4918770;29;20633;-77
2022/08/14 00:45:41;;;;;;;10.70;7.87;;;21.00;99.90;;;;;;4922513;29;20543;-77
2022/08/14 00:48:09;;;;;;;9.60;7.67;;;21.00;99.90;;;;;;4955108;29;20675;-77
2022/08/14 00:50:36;;;;;;;12.33;8.27;;;21.00;99.90;;;;;;4954710;29;20731;-77
2022/08/14 00:53:04;;;;;;;11.47;8.30;;;21.00;99.90;;;;;;4937415;29;20206;-75
2022/08/14 00:55:40;;;;;;;10.17;8.20;;;21.00;99.90;;;;;;4954907;29;20280;-76
2022/08/14 01:01:09;;;;;;;13.33;8.60;;;20.90;99.90;;;;;;4918902;29;20646;-75
2022/08/14 01:03:38;;;;;;;14.23;9.50;;;20.70;99.90;;;;;;4918435;29;20202;-76
2022/08/14 01:06:10;;;;;;;16.63;9.57;;;20.50;99.90;;;;;;4918642;29;20218;-73
2022/08/14 01:08:38;;;;;;;13.77;9.00;;;20.40;99.90;;;;;;4918203;29;20213;-74
2022/08/14 01:11:24;;;;;;;14.60;9.00;;;20.30;99.90;;;;;;4935813;29;20199;-74
2022/08/14 01:14:02;;;;;;;12.87;8.93;;;20.30;99.90;;;;;;4918654;29;20202;-75
2022/08/14 01:16:49;;;;;;;11.47;8.77;;;20.10;99.90;;;;;;4918244;29;20203;-74
2022/08/14 01:22:11;;;;;;;11.40;8.70;;;20.00;99.90;;;;;;4918315;29;20198;-72
2022/08/14 01:24:40;;;;;;;14.17;9.50;;;20.00;99.90;;;;;;4918657;29;20612;-74
2022/08/14 01:27:20;;;;;;;12.47;9.20;;;20.00;99.90;;;;;;4918170;29;20230;-75
2022/08/14 01:29:54;;;;;;;10.97;8.67;;;20.00;99.90;;;;;;4918084;29;20238;-76
2022/08/14 01:32:32;;;;;;;12.17;8.70;;;20.00;99.90;;;;;;4918398;29;20262;-74
2022/08/14 01:35:09;;;;;;;14.03;9.33;;;19.90;99.90;;;;;;4918329;29;20207;-75
2022/08/14 01:37:47;;;;;;;12.77;9.23;;;19.90;99.90;;;;;;4918209;29;20210;-75
2022/08/14 01:40:26;;;;;;;13.07;9.57;;;19.90;99.90;;;;;;4917737;29;20298;-75
2022/08/14 01:43:12;;;;;;;13.27;9.10;;;19.90;99.90;;;;;;4918352;29;20498;-76
2022/08/14 01:45:39;;;;;;;14.77;9.47;;;19.90;99.90;;;;;;4918007;29;20242;-75
2022/08/14 01:48:08;;;;;;;11.70;9.20;;;19.90;99.90;;;;;;4917826;29;20206;-75
2022/08/14 01:50:41;;;;;;;12.60;9.70;;;19.90;99.90;;;;;;4920778;29;20265;-75
2022/08/14 01:53:08;;;;;;;12.27;9.50;;;19.90;99.90;;;;;;4938501;29;20273;-74
2022/08/14 01:55:38;;;;;;;13.00;9.33;;;19.90;99.90;;;;;;4921147;29;20207;-74
2022/08/14 01:58:12;;;;;;;12.10;9.53;;;19.80;99.90;;;;;;4920364;29;20724;-76
2022/08/14 02:00:53;;;;;;;13.73;9.20;;;19.90;99.90;;;;;;4921129;29;20203;-74
2022/08/14 02:03:29;;;;;;;12.43;9.40;;;19.90;99.90;;;;;;4920884;29;20207;-75
2022/08/14 02:06:01;;;;;;;14.30;10.10;;;19.90;99.90;;;;;;4938123;29;20199;-74
2022/08/14 02:08:48;;;;;;;14.10;9.40;;;19.90;99.90;;;;;;4920453;29;20195;-74
2022/08/14 02:11:22;;;;;;;13.60;9.53;;;19.80;99.90;;;;;;4921726;29;20262;-75
2022/08/14 02:14:00;;;;;;;12.03;9.40;;;19.80;99.90;;;;;;4921141;29;20286;-74
2022/08/14 02:16:40;;;;;;;13.23;10.07;;;19.80;99.90;;;;;;4920866;29;20293;-74
2022/08/14 02:19:10;;;;;;;13.70;9.80;;;19.80;99.90;;;;;;4920967;29;20222;-74
2022/08/14 02:21:38;;;;;;;14.90;9.70;;;19.90;99.90;;;;;;4921246;29;20227;-75
2022/08/14 02:24:14;;;;;;;14.30;9.67;;;19.80;99.90;;;;;;4921146;29;20257;-75
2022/08/14 02:27:01;;;;;;;14.40;9.93;;;19.80;99.90;;;;;;4920750;29;20223;-75
2022/08/14 02:29:48;;;;;;;14.13;9.83;;;19.80;99.90;;;;;;4920878;29;20199;-73
2022/08/14 02:32:26;;;;;;;13.53;9.40;;;19.80;99.90;;;;;;4920885;29;20293;-74
2022/08/14 02:35:09;;;;;;;11.00;8.67;;;19.80;99.90;;;;;;4920622;29;20678;-75
2022/08/14 02:37:38;;;;;;;12.83;9.57;;;19.80;99.90;;;;;;4937562;29;20271;-74
2022/08/14 02:40:15;;;;;;;12.80;9.37;;;19.80;99.90;;;;;;4920480;29;20238;-75
2022/08/14 02:42:42;;;;;;;11.07;8.83;;;19.70;99.90;;;;;;4920920;29;20215;-74
2022/08/14 02:45:25;;;;;;;12.87;9.07;;;19.70;99.90;;;;;;4920594;29;20211;-76
2022/08/14 02:48:05;;;;;;;12.53;9.57;;;19.70;99.90;;;;;;4937551;29;20195;-76
2022/08/14 02:50:52;;;;;;;11.90;8.57;;;19.70;99.90;;;;;;4937344;29;20205;-76
2022/08/14 02:53:19;;;;;;;11.50;9.10;;;19.60;99.90;;;;;;4920218;29;20203;-76
2022/08/14 02:55:46;;;;;;;10.93;8.50;;;19.60;99.90;;;;;;4920776;29;20207;-76
2022/08/14 02:58:15;;;;;;;13.17;9.40;;;19.60;99.90;;;;;;4937385;29;20195;-76
2022/08/14 03:00:57;;;;;;;11.77;9.10;;;19.70;99.90;;;;;;4920393;29;20297;-76
2022/08/14 03:03:25;;;;;;;10.37;8.77;;;19.60;99.90;;;;;;4937685;29;20199;-77
2022/08/14 03:05:52;;;;;;;14.17;9.47;;;19.60;99.90;;;;;;4937609;29;20294;-77
2022/08/14 03:08:21;;;;;;;11.30;8.90;;;19.60;99.90;;;;;;4920211;29;20199;-77
2022/08/14 03:10:51;;;;;;;12.93;8.77;;;19.60;99.90;;;;;;4920117;29;20334;-77
2022/08/14 03:13:23;;;;;;;14.67;8.47;;;19.60;99.90;;;;;;4937193;29;20243;-77
2022/08/14 03:15:52;;;;;;;14.13;9.37;;;19.50;99.90;;;;;;4919913;29;20209;-77
2022/08/14 03:18:24;;;;;;;12.50;9.37;;;19.50;99.90;;;;;;4919803;29;20215;-77
2022/08/14 03:21:04;;;;;;;13.30;8.90;;;19.50;99.90;;;;;;4920011;29;20201;-75
2022/08/14 03:23:34;;;;;;;12.47;8.80;;;19.50;99.90;;;;;;4903805;29;20199;-77
2022/08/14 03:26:05;;;;;;;13.70;8.67;;;19.50;99.90;;;;;;4919779;29;20266;-75
2022/08/14 03:28:33;;;;;;;13.00;9.40;;;19.50;99.90;;;;;;4919951;29;20199;-76
2022/08/14 03:31:03;;;;;;;18.03;8.90;;;19.50;99.90;;;;;;4919980;29;20254;-75
2022/08/14 03:33:36;;;;;;;11.23;8.53;;;19.50;99.90;;;;;;4919462;29;20213;-75
2022/08/14 03:36:15;;;;;;;12.97;9.13;;;19.40;99.90;;;;;;4919744;29;20241;-74
2022/08/14 03:39:04;;;;;;;12.50;9.27;;;19.50;99.90;;;;;;4919225;29;20234;-75
2022/08/14 03:41:55;;;;;;;13.73;8.73;;;19.40;99.90;;;;;;4919459;29;20203;-73
2022/08/14 03:44:27;;;;;;;13.23;8.53;;;19.40;99.90;;;;;;4919430;29;20298;-75
2022/08/14 03:47:14;;;;;;;17.03;9.37;;;19.40;99.90;;;;;;4919345;29;20571;-77
2022/08/14 03:49:43;;;;;;;14.50;8.73;;;19.40;99.90;;;;;;4919588;29;20301;-74
2022/08/14 03:52:15;;;;;;;12.63;9.03;;;19.40;99.90;;;;;;4919609;29;20202;-75
2022/08/14 03:55:05;;;;;;;14.53;9.20;;;19.50;99.90;;;;;;4919245;29;20540;-75
2022/08/14 03:57:34;;;;;;;13.10;8.93;;;19.50;99.90;;;;;;4919338;29;20202;-76
2022/08/14 04:00:10;;;;;;;11.93;8.57;;;19.50;99.90;;;;;;4919650;29;20227;-75
2022/08/14 04:02:53;;;;;;;12.80;8.87;;;19.50;99.90;;;;;;4919209;29;20329;-76
2022/08/14 04:05:20;;;;;;;10.73;9.03;;;19.50;99.90;;;;;;4919128;29;20214;-76
2022/08/14 04:07:49;;;;;;;12.90;9.17;;;19.50;99.90;;;;;;4904147;29;20210;-76
2022/08/14 04:10:37;;;;;;;13.23;8.67;;;19.50;99.90;;;;;;4936173;29;20200;-76
2022/08/14 04:13:05;;;;;;;11.93;8.60;;;19.50;99.90;;;;;;4935565;29;20183;-76
2022/08/14 04:15:33;;;;;;;12.57;9.20;;;19.50;99.90;;;;;;4919047;29;20616;-75
2022/08/14 04:18:20;;;;;;;16.17;10.37;;;19.50;99.90;;;;;;4918929;29;20198;-76
2022/08/14 04:20:48;;;;;;;13.13;9.67;;;19.60;99.90;;;;;;4919359;29;20318;-76
2022/08/14 04:23:22;;;;;;;11.60;9.17;;;19.60;99.90;;;;;;4918881;29;20219;-75
2022/08/14 04:26:03;;;;;;;13.87;9.50;;;19.60;99.90;;;;;;4936070;29;20229;-75
2022/08/14 04:28:38;;;;;;;13.27;8.93;;;19.70;99.90;;;;;;4918948;29;20187;-76
2022/08/14 04:31:25;;;;;;;17.40;9.37;;;19.70;99.90;;;;;;4935809;29;20300;-75
2022/08/14 04:34:12;;;;;;;13.80;9.23;;;19.70;99.90;;;;;;4918851;29;20573;-74
2022/08/14 04:45:24;;;;;;;13.27;9.80;;;19.80;99.90;;;;;;4918698;29;20238;-75
2022/08/14 04:48:14;;;;;;;23.10;10.20;;;19.80;99.90;;;;;;4935573;29;20201;-73
2022/08/14 04:51:10;;;;;;;16.20;9.20;;;19.90;99.90;;;;;;4921395;29;20194;-74
2022/08/14 04:53:39;;;;;;;14.17;9.30;;;20.00;99.90;;;;;;4918399;29;20212;-75
2022/08/14 04:56:14;;;;;;;13.23;9.23;;;20.00;99.90;;;;;;4918501;29;20646;-75
2022/08/14 04:59:04;;;;;;;13.60;9.60;;;20.10;99.90;;;;;;4918628;29;20231;-76
2022/08/14 05:01:40;;;;;;;13.20;9.20;;;20.20;99.90;;;;;;4918465;29;20214;-76
2022/08/14 05:04:11;;;;;;;16.60;10.00;;;20.20;99.90;;;;;;4935558;29;20240;-74
2022/08/14 05:06:45;;;;;;;13.17;10.13;;;20.20;99.90;;;;;;4918373;29;20202;-76
2022/08/14 05:09:15;;;;;;;15.27;9.80;;;20.20;99.90;;;;;;4918369;29;20198;-75
2022/08/14 05:11:43;;;;;;;17.07;9.40;;;20.30;99.90;;;;;;4918607;29;20199;-75
2022/08/14 05:14:11;;;;;;;14.77;10.90;;;20.40;99.90;;;;;;4919419;29;20195;-74
2022/08/14 05:16:58;;;;;;;14.90;10.57;;;20.40;99.90;;;;;;4918640;29;20202;-75
2022/08/14 05:19:28;;;;;;;15.00;10.83;;;20.50;99.90;;;;;;4923859;29;20226;-75
2022/08/14 05:21:59;;;;;;;17.00;10.27;;;20.60;99.90;;;;;;4954642;29;20203;-75
2022/08/14 05:24:44;;;;;;;14.60;10.80;;;20.60;99.90;;;;;;4939610;29;20288;-74
2022/08/14 05:27:18;;;;;;;15.27;11.00;;;20.60;99.90;;;;;;4940897;29;20236;-76
2022/08/14 05:29:49;;;;;;;16.43;10.80;;;20.60;99.90;;;;;;4941198;29;20547;-75
2022/08/14 05:32:16;;;;;;;16.53;10.97;;;20.50;99.90;;;;;;4941127;29;20289;-74
2022/08/14 05:34:43;;;;;;;18.53;11.47;;;20.50;99.90;;;;;;4941280;29;20591;-74
2022/08/14 05:37:12;;;;;;;15.23;10.57;;;20.50;99.90;;;;;;4940899;29;20257;-74
2022/08/14 05:39:41;;;;;;;15.07;11.20;;;20.60;99.90;;;;;;4957753;29;20249;-74
2022/08/14 05:42:09;;;;;;;24.43;12.80;;;20.70;99.90;;;;;;4941072;29;20256;-76
2022/08/14 05:44:52;;;;;;;20.73;12.07;;;20.80;99.90;;;;;;4940995;29;20237;-75
2022/08/14 05:47:21;;;;;;;19.00;12.17;;;20.80;99.90;;;;;;4941140;29;20198;-76
2022/08/14 05:49:49;;;;;;;17.20;11.67;;;20.80;99.90;;;;;;4924619;29;20262;-76
2022/08/14 05:52:17;;;;;;;20.53;11.90;;;20.80;99.90;;;;;;4940552;29;20206;-73
2022/08/14 05:55:07;;;;;;;14.60;11.47;;;20.80;99.90;;;;;;4940526;29;20285;-74
2022/08/14 05:57:34;;;;;;;27.30;13.00;;;20.90;99.90;;;;;;4940551;29;20206;-76
2022/08/14 06:00:03;;;;;;;17.87;12.73;;;21.00;99.90;;;;;;4940407;29;20217;-75
2022/08/14 06:02:31;;;;;;;15.70;11.17;;;21.10;99.90;;;;;;4940486;29;20557;-75
2022/08/14 06:05:01;;;;;;;16.70;11.83;;;21.10;99.90;;;;;;4940795;29;20206;-76
2022/08/14 06:07:28;;;;;;;17.80;12.03;;;21.20;99.90;;;;;;4957539;29;20276;-75
2022/08/14 06:09:55;;;;;;;17.17;12.20;;;21.30;99.90;;;;;;4940024;29;20206;-75
2022/08/14 06:12:28;;;;;;;15.50;11.60;;;21.30;99.90;;;;;;4940414;29;20229;-74
2022/08/14 06:15:15;;;;;;;17.00;12.60;;;21.30;99.90;;;;;;4940103;29;20298;-75
2022/08/14 06:17:48;;;;;;;17.57;12.13;;;21.50;99.90;;;;;;4957156;29;20183;-75
2022/08/14 06:20:25;;;;;;;18.57;12.47;;;21.50;99.90;;;;;;4940138;29;20783;-75
2022/08/14 06:22:54;;;;;;;20.17;11.90;;;21.80;99.90;;;;;;4939871;29;20580;-74
2022/08/14 06:25:23;;;;;;;17.03;12.03;;;21.80;99.90;;;;;;4939796;29;20217;-75
2022/08/14 06:27:52;;;;;;;19.03;12.60;;;21.90;99.90;;;;;;4939824;29;20273;-73
2022/08/14 06:30:22;;;;;;;17.70;12.20;;;22.00;99.90;;;;;;4939719;29;20297;-74
2022/08/14 06:32:56;;;;;;;17.67;13.47;;;22.10;99.90;;;;;;4956986;29;20297;-74
2022/08/14 06:35:23;;;;;;;15.93;12.00;;;22.00;99.90;;;;;;4938470;29;20209;-74
2022/08/14 06:37:58;;;;;;;18.30;11.90;;;22.20;99.90;;;;;;4934178;29;20234;-74
2022/08/14 06:40:33;;;;;;;18.53;12.43;;;22.30;99.90;;;;;;4931839;29;20692;-76
2022/08/14 06:43:07;;;;;;;18.27;12.73;;;22.20;99.90;;;;;;4934083;29;20194;-74
2022/08/14 06:45:44;;;;;;;17.87;12.47;;;22.20;99.90;;;;;;4948166;29;20202;-75
2022/08/14 06:48:23;;;;;;;18.93;12.53;;;22.30;99.90;;;;;;4933792;29;20206;-72
2022/08/14 06:50:52;;;;;;;16.87;12.60;;;22.40;99.90;;;;;;4930078;29;20194;-74
2022/08/14 06:53:21;;;;;;;20.70;13.20;;;22.60;99.90;;;;;;4928802;29;20186;-74
2022/08/14 06:55:57;;;;;;;18.73;13.03;;;22.70;99.90;;;;;;4930578;29;20234;-76
2022/08/14 06:58:36;;;;;;;25.30;13.27;;;22.80;99.90;;;;;;4929519;29;20671;-74
2022/08/14 07:06:51;;;;;;;19.73;13.30;;;22.90;99.90;;;;;;4930179;29;20194;-74
2022/08/14 07:09:26;;;;;;;18.73;13.30;;;23.10;99.90;;;;;;4928473;29;20205;-74
2022/08/14 07:11:54;;;;;;;20.93;14.03;;;23.20;99.90;;;;;;4930498;29;20194;-73
2022/08/14 07:14:22;;;;;;;20.38;13.57;;;23.20;99.90;;;;;;4929132;29;20320;-74
2022/08/14 07:16:48;;;;;;;19.43;13.90;;;23.20;99.90;;;;;;4926803;29;20590;-72
2022/08/14 07:19:17;;;;;;;17.40;13.00;;;23.30;99.90;;;;;;4947812;29;20273;-72
2022/08/14 07:21:47;;;;;;;20.07;13.57;;;23.30;99.90;;;;;;4949090;29;20199;-75
2022/08/14 07:24:14;;;;;;;18.97;13.03;;;23.50;99.90;;;;;;4918654;29;20207;-74
2022/08/14 07:26:48;;;;;;;19.02;13.00;;;23.60;99.90;;;;;;4932201;29;20304;-73
2022/08/14 07:29:15;;;;;;;18.83;13.25;;;23.60;99.90;;;;;;4951335;29;20610;-77
2022/08/14 07:31:44;;;;;;;18.23;13.20;;;23.70;99.90;;;;;;4943946;29;20241;-73
2022/08/14 07:34:12;;;;;;;19.17;13.55;;;23.90;99.90;;;;;;4938699;29;20206;-76
2022/08/14 07:36:59;;;;;;;17.60;12.47;;;24.00;99.90;;;;;;4938602;29;20209;-75
2022/08/14 07:39:27;;;;;;;16.33;12.80;;;24.10;99.90;;;;;;4938381;29;20720;-76
2022/08/14 07:41:54;;;;;;;17.30;12.93;;;24.10;99.90;;;;;;4937151;29;20206;-78
2022/08/14 07:44:20;;;;;;;18.23;12.05;;;24.30;99.90;;;;;;4938595;29;20302;-73
2022/08/14 07:47:02;;;;;;;17.58;12.40;;;24.40;99.90;;;;;;4937900;29;20198;-73
2022/08/14 07:49:33;;;;;;;17.65;12.25;;;24.50;99.90;;;;;;4938291;29;20198;-73
2022/08/14 07:52:03;;;;;;;19.35;12.43;;;24.50;99.90;;;;;;4937879;29;20194;-73
2022/08/14 07:54:30;;;;;;;18.10;11.80;;;24.50;99.90;;;;;;4938130;29;20198;-72
2022/08/14 07:56:58;;;;;;;17.65;11.60;;;24.40;99.90;;;;;;4952807;29;20198;-73
2022/08/14 07:59:32;;;;;;;19.90;12.07;;;24.40;99.90;;;;;;4930759;29;20641;-74
2022/08/14 08:02:11;;;;;;;17.70;11.93;;;24.40;99.90;;;;;;4955364;29;20202;-73
2022/08/14 08:04:48;;;;;;;18.75;12.48;;;24.30;99.90;;;;;;4938042;29;20214;-74
2022/08/14 08:07:15;;;;;;;17.80;11.65;;;24.30;99.90;;;;;;4934839;29;20352;-77
2022/08/14 08:09:49;;;;;;;16.13;12.73;;;24.30;99.90;;;;;;4930775;29;20195;-74
2022/08/14 08:12:20;;;;;;;16.98;11.85;;;24.30;99.90;;;;;;4938121;29;20221;-75
2022/08/14 08:14:52;;;;;;;18.15;12.40;;;24.20;99.90;;;;;;4936514;29;20253;-75
2022/08/14 08:17:30;;;;;;;23.55;13.65;;;24.20;99.90;;;;;;4937726;29;20209;-76
2022/08/14 08:20:05;;;;;;;25.85;13.32;;;24.10;99.90;;;;;;4938051;29;20301;-70
2022/08/14 08:22:36;;;;;;;17.30;13.13;;;24.20;99.90;;;;;;4938097;29;20202;-75
2022/08/14 08:25:05;;;;;;;16.65;12.20;;;24.20;99.90;;;;;;4935985;29;20198;-75
2022/08/14 08:27:40;;;;;;;18.98;12.43;;;24.20;99.90;;;;;;4937469;29;20684;-74
2022/08/14 08:30:13;;;;;;;17.33;11.80;;;24.30;99.90;;;;;;4954994;29;20194;-77
2022/08/14 08:32:44;;;;;;;15.90;12.43;;;24.30;99.90;;;;;;4934678;29;20291;-75
2022/08/14 08:35:24;;;;;;;16.08;12.75;;;24.30;99.90;;;;;;4945625;29;20551;-77
2022/08/14 08:38:14;;;;;;;17.55;12.00;;;24.40;99.90;;;;;;4943902;29;20190;-77
2022/08/14 08:41:01;;;;;;;18.52;12.30;;;24.70;99.90;;;;;;4929102;29;20231;-78
2022/08/14 08:43:35;;;;;;;18.58;12.75;;;24.80;99.90;;;;;;4927943;29;20209;-76
2022/08/14 08:46:11;;;;;;;17.45;12.18;;;24.90;99.90;;;;;;4951310;29;20198;-77
2022/08/14 08:48:58;;;;;;;17.80;12.55;;;24.90;99.90;;;;;;4946490;29;20281;-75
2022/08/14 08:51:31;;;;;;;18.23;12.65;;;24.80;99.90;;;;;;4952577;28;20189;-77
2022/08/14 08:54:06;;;;;;;17.25;12.15;;;24.60;99.90;;;;;;4914829;29;20652;-77
2022/08/14 08:56:49;;;;;;;18.17;12.50;;;25.00;99.90;;;;;;4941297;29;20703;-77
2022/08/14 08:59:23;;;;;;;17.25;13.02;;;25.20;99.90;;;;;;4939581;29;20201;-74
2022/08/14 09:01:59;;;;;;;16.83;12.82;;;25.30;99.90;;;;;;4941504;29;20268;-75
2022/08/14 09:04:28;;;;;;;15.70;12.63;;;25.40;99.90;;;;;;4941478;29;20218;-73
2022/08/14 09:06:56;;;;;;;18.15;12.52;;;25.50;99.90;;;;;;4958757;29;20194;-71
2022/08/14 09:09:50;;;;;;;18.52;12.82;;;25.70;99.90;;;;;;4939997;29;20572;-75
2022/08/14 09:12:22;;;;;;;16.20;12.60;;;25.80;99.90;;;;;;4958599;29;20205;-76
2022/08/14 09:14:52;;;;;;;15.63;11.80;;;25.60;99.90;;;;;;4925443;29;20328;-74
2022/08/14 09:17:19;;;;;;;16.40;12.43;;;25.60;99.90;;;;;;4941391;29;20206;-74
2022/08/14 09:19:52;;;;;;;15.60;12.38;;;25.80;99.90;;;;;;4941432;29;20198;-75
2022/08/14 09:22:20;;;;;;;16.65;11.90;;;26.10;99.90;;;;;;4937309;29;20243;-75
2022/08/14 09:25:07;;;;;;;15.40;12.15;;;26.40;99.90;;;;;;4933736;29;20687;-76
2022/08/14 09:27:36;;;;;;;17.42;12.07;;;26.40;99.90;;;;;;4934082;29;20622;-76
2022/08/14 09:30:08;;;;;;;16.05;12.23;;;26.50;99.90;;;;;;4929389;29;20203;-75
2022/08/14 09:33:06;;;;;;;18.60;12.32;;;26.50;99.90;;;;;;4939694;29;20225;-78
2022/08/14 09:35:47;;;;;;;17.85;12.15;;;26.50;99.90;;;;;;4934799;29;20663;-76
2022/08/14 09:38:45;;;;;;;16.98;11.63;;;26.40;99.90;;;;;;4954040;29;20209;-75
2022/08/14 09:41:30;;;;;;;15.32;12.10;;;26.20;99.90;;;;;;4926397;29;20341;-75
2022/08/14 09:44:28;;;;;;;14.45;11.60;;;26.10;99.90;;;;;;4938569;29;20194;-74
2022/08/14 09:46:57;;;;;;;16.20;12.02;;;26.10;99.90;;;;;;4929719;29;20580;-74
2022/08/14 09:49:36;;;;;;;14.52;11.73;;;26.10;99.90;;;;;;4931239;29;20228;-75
2022/08/14 09:52:09;;;;;;;14.40;11.50;;;26.10;99.90;;;;;;4934413;29;20243;-77
2022/08/14 09:54:56;;;;;;;14.10;11.13;;;26.60;99.90;;;;;;4951824;29;20203;-76
2022/08/14 09:57:31;;;;;;;18.25;10.98;;;27.20;99.90;;;;;;4929263;29;20205;-74
2022/08/14 10:00:13;;;;;;;15.50;11.07;;;27.70;99.90;;;;;;4938997;29;20205;-74
2022/08/14 10:03:01;;;;;;;15.27;11.23;;;27.50;99.90;;;;;;4938388;29;20246;-75
2022/08/14 10:05:34;;;;;;;13.23;10.73;;;27.40;99.90;;;;;;4921644;29;20199;-75
2022/08/14 10:08:17;;;;;;;15.45;11.23;;;27.30;99.90;;;;;;4921529;29;20203;-73
2022/08/14 10:10:52;;;;;;;18.63;11.18;;;27.30;99.90;;;;;;4920241;29;20203;-74
2022/08/14 10:13:28;;;;;;;14.50;10.75;;;27.50;99.90;;;;;;4921229;29;20205;-76
2022/08/14 10:16:15;;;;;;;16.00;11.35;;;27.70;99.90;;;;;;4921009;29;20562;-76
2022/08/14 10:19:05;;;;;;;16.75;11.55;;;27.60;99.90;;;;;;4921067;29;20206;-76
2022/08/14 10:21:42;;;;;;;16.38;12.13;;;27.60;99.90;;;;;;4920897;29;20218;-75
2022/08/14 10:24:40;;;;;;;16.05;11.65;;;27.40;99.90;;;;;;4938075;29;20238;-76
2022/08/14 10:27:17;;;;;;;17.83;11.98;;;27.40;99.90;;;;;;4920922;29;20226;-77
2022/08/14 10:29:49;;;;;;;17.30;12.00;;;27.20;99.90;;;;;;4920864;29;20206;-77
2022/08/14 10:32:17;;;;;;;18.00;11.88;;;27.20;99.90;;;;;;4920851;29;20859;-76
2022/08/14 10:35:07;;;;;;;19.88;12.30;;;27.40;99.90;;;;;;4937971;29;20611;-77
2022/08/14 10:37:46;;;;;;;19.70;12.20;;;27.60;99.90;;;;;;4920815;29;20274;-76
2022/08/14 10:40:24;;;;;;;18.70;12.52;;;27.80;99.90;;;;;;4920310;29;20279;-76
2022/08/14 10:43:35;;;;;;;16.10;12.32;;;27.50;99.90;;;;;;4920667;29;20293;-75
2022/08/14 10:46:13;;;;;;;16.42;12.35;;;27.30;99.90;;;;;;4918102;29;20195;-77
2022/08/14 10:49:01;;;;;;;16.67;12.80;;;27.30;99.90;;;;;;4920393;29;20201;-76
2022/08/14 10:51:33;;;;;;;15.20;12.30;;;27.30;99.90;;;;;;4920785;29;20255;-78
2022/08/14 10:54:07;;;;;;;17.67;12.70;;;27.50;99.90;;;;;;4937213;29;20191;-78
2022/08/14 10:56:54;;;;;;;17.42;12.02;;;27.80;99.90;;;;;;4920225;29;20241;-79
2022/08/14 10:59:22;;;;;;;17.58;12.30;;;28.10;99.90;;;;;;4920287;29;20207;-77
2022/08/14 11:02:19;;;;;;;17.92;12.40;;;28.60;99.90;;;;;;4920399;29;20232;-76
2022/08/14 11:05:16;;;;;;;15.65;11.95;;;28.70;99.90;;;;;;4919792;29;20305;-77
2022/08/14 11:07:56;;;;;;;16.30;11.88;;;29.00;99.90;;;;;;4920381;29;20202;-76
2022/08/14 11:10:47;;;;;;;15.35;11.57;;;29.30;99.90;;;;;;4937232;29;20195;-77
2022/08/14 11:13:22;;;;;;;15.18;10.90;;;29.80;99.90;;;;;;4920216;29;20255;-76
2022/08/14 11:15:50;;;;;;;15.93;11.82;;;30.40;99.90;;;;;;4920216;29;20615;-77
2022/08/14 11:18:18;;;;;;;17.30;12.57;;;30.70;99.90;;;;;;4937023;29;20195;-77
2022/08/14 11:20:58;;;;;;;14.43;10.88;;;30.90;99.90;;;;;;4937093;29;20210;-75
2022/08/14 11:23:30;;;;;;;13.80;11.32;;;30.80;99.90;;;;;;4919759;29;20217;-77
2022/08/14 11:26:07;;;;;;;15.82;11.43;;;30.90;99.90;;;;;;4919729;29;20265;-76
2022/08/14 11:28:40;;;;;;;12.55;11.02;;;31.00;99.90;;;;;;4920305;29;20191;-77
2022/08/14 11:31:19;;;;;;;14.57;11.10;;;31.30;99.90;;;;;;4919783;29;20203;-77
2022/08/14 11:33:56;;;;;;;14.02;11.15;;;31.60;99.90;;;;;;4920178;29;20688;-76
2022/08/14 11:36:27;;;;;;;15.75;11.43;;;31.40;99.90;;;;;;4919755;29;20210;-77
2022/08/14 11:39:23;;;;;;;14.85;11.10;;;31.60;99.90;;;;;;4919514;29;20191;-78
2022/08/14 11:42:06;;;;;;;14.40;11.57;;;31.50;99.90;;;;;;4919839;29;20683;-78
2022/08/14 11:44:57;;;;;;;15.77;11.23;;;31.50;99.90;;;;;;4919781;29;20641;-77
2022/08/14 11:47:27;;;;;;;14.40;10.80;;;31.70;99.90;;;;;;4919575;29;20234;-77
2022/08/14 11:50:22;;;;;;;14.15;10.82;;;31.90;99.90;;;;;;4919620;29;20217;-77
2022/08/14 11:53:01;;;;;;;12.95;10.68;;;31.80;99.90;;;;;;4936559;29;20568;-78
2022/08/14 11:55:35;;;;;;;13.25;10.93;;;31.50;99.90;;;;;;4919339;29;20209;-78
2022/08/14 11:58:09;;;;;;;14.27;11.50;;;31.80;99.90;;;;;;4919849;29;20713;-77
2022/08/14 12:00:52;;;;;;;13.90;11.52;;;31.80;99.90;;;;;;4919701;29;20297;-77
2022/08/14 12:03:20;;;;;;;16.33;11.32;;;31.80;99.90;;;;;;4936352;29;20210;-77
2022/08/14 12:06:12;;;;;;;13.77;11.60;;;31.80;99.90;;;;;;4906443;29;20622;-78
2022/08/14 12:08:59;;;;;;;14.60;10.80;;;32.10;99.90;;;;;;4919183;29;20649;-77
2022/08/14 12:11:37;;;;;;;13.80;11.50;;;32.30;99.90;;;;;;4919211;29;20191;-77
2022/08/14 12:14:11;;;;;;;17.45;11.02;;;32.60;99.90;;;;;;4919550;29;20219;-77
2022/08/14 12:17:06;;;;;;;13.45;11.30;;;32.60;99.90;;;;;;4920023;29;20571;-78
2022/08/14 12:19:52;;;;;;;14.35;10.90;;;32.80;99.90;;;;;;4936747;29;20219;-78
2022/08/14 12:22:43;;;;;;;14.45;11.02;;;32.80;99.90;;;;;;4919440;29;20371;-78
2022/08/14 12:25:18;;;;;;;16.33;11.90;;;33.00;99.90;;;;;;4918945;29;20671;-77
2022/08/14 12:27:51;;;;;;;13.88;10.73;;;33.00;99.90;;;;;;4964491;23;20315;-78
2022/08/14 12:30:41;;;;;;;16.10;11.75;;;32.90;99.90;;;;;;4957157;28;20193;-79
2022/08/14 12:33:31;;;;;;;13.68;11.38;;;32.90;99.90;;;;;;4974149;28;20197;-78
2022/08/14 12:36:07;;;;;;;18.95;10.80;;;32.80;99.90;;;;;;4957093;28;20557;-78
2022/08/14 12:38:42;;;;;;;13.43;10.65;;;32.80;99.90;;;;;;4957317;28;20646;-79
2022/08/14 12:41:17;;;;;;;12.07;10.18;;;32.90;99.90;;;;;;4974068;28;20217;-78
2022/08/14 12:43:55;;;;;;;13.68;11.00;;;33.20;99.90;;;;;;4956631;28;20616;-80
2022/08/14 12:46:34;;;;;;;12.27;10.15;;;33.30;99.90;;;;;;4956814;28;20243;-78
2022/08/14 12:49:15;;;;;;;12.27;10.25;;;33.60;99.90;;;;;;4956965;28;20224;-79
2022/08/14 12:51:43;;;;;;;14.32;11.23;;;33.70;99.90;;;;;;4956844;28;20209;-79
2022/08/14 12:54:19;;;;;;;12.98;10.23;;;33.60;99.90;;;;;;4956830;28;20636;-79
2022/08/14 12:57:10;;;;;;;13.68;10.52;;;33.40;99.90;;;;;;4956567;28;20639;-79
2022/08/14 12:59:46;;;;;;;14.70;10.90;;;33.50;99.90;;;;;;4956771;28;20197;-80
2022/08/14 13:02:23;;;;;;;17.55;11.20;;;33.50;99.90;;;;;;4956634;28;20687;-80
2022/08/14 13:04:56;;;;;;;18.15;11.23;;;33.50;99.90;;;;;;4957307;28;20201;-81
2022/08/14 13:07:27;;;;;;;17.23;10.95;;;33.60;99.90;;;;;;4956711;28;20232;-81
2022/08/14 13:09:59;;;;;;;15.00;10.65;;;33.70;99.90;;;;;;4957409;28;20224;-79
2022/08/14 13:12:48;;;;;;;16.02;11.40;;;33.70;99.90;;;;;;4956581;28;20193;-80
2022/08/14 13:15:37;;;;;;;17.88;11.27;;;33.90;99.90;;;;;;4974027;28;20204;-79
2022/08/14 13:18:09;;;;;;;14.82;11.27;;;33.90;99.90;;;;;;4973696;28;20190;-78
2022/08/14 13:20:40;;;;;;;14.60;10.88;;;33.80;99.90;;;;;;4956849;28;20278;-79
2022/08/14 13:23:18;;;;;;;14.80;10.68;;;33.90;99.90;;;;;;4956443;28;20194;-78
2022/08/14 13:25:58;;;;;;;14.50;10.98;;;33.80;99.90;;;;;;4955282;28;20205;-80
2022/08/14 13:28:26;;;;;;;30.27;12.00;;;33.70;99.90;;;;;;4936852;29;20257;-80
2022/08/14 13:31:04;;;;;;;13.90;10.77;;;33.50;99.90;;;;;;4937605;29;20196;-82
2022/08/14 13:33:38;;;;;;;14.75;10.63;;;33.40;99.90;;;;;;4937011;29;20249;-81
2022/08/14 13:36:08;;;;;;;19.98;11.02;;;33.40;99.90;;;;;;4954496;29;20201;-80